sensor_id;sensor_type;location;lat;lon;timestamp;pressure;altitude;pressure_sealevel;temperature;humidity
17607;BME280;69222;52.242;20.980;2023-11-19T00:00:27;101041.97;;;1.68;80.22
17607;BME280;69222;52.242;20.980;2023-11-19T00:02:59;101040.25;;;1.67;79.19
17607;BME280;69222;52.242;20.980;2023-11-19T00:05:28;101044.38;;;1.65;78.92
17607;BME280;69222;52.242;20.980;2023-11-19T00:07:56;101040.97;;;1.64;79.69
17607;BME280;69222;52.242;20.980;2023-11-19T00:10:24;101041.69;;;1.62;79.79
17607;BME280;69222;52.242;20.980;2023-11-19T00:12:54;101045.75;;;1.57;79.50
17607;BME280;69222;52.242;20.980;2023-11-19T00:15:23;101050.88;;;1.58;80.37
17607;BME280;69222;52.242;20.980;2023-11-19T00:17:52;101051.88;;;1.62;80.14
17607;BME280;69222;52.242;20.980;2023-11-19T00:20:26;101045.31;;;1.67;79.71
17607;BME280;69222;52.242;20.980;2023-11-19T00:22:54;101041.97;;;1.68;80.21
17607;BME280;69222;52.242;20.980;2023-11-19T00:25:21;101035.97;;;1.66;80.04
17607;BME280;69222;52.242;20.980;2023-11-19T00:27:50;101040.41;;;1.72;80.19
17607;BME280;69222;52.242;20.980;2023-11-19T00:30:20;101031.94;;;1.71;80.05
17607;BME280;69222;52.242;20.980;2023-11-19T00:32:48;101038.75;;;1.72;80.55
17607;BME280;69222;52.242;20.980;2023-11-19T00:35:16;101029.50;;;1.74;80.68
17607;BME280;69222;52.242;20.980;2023-11-19T00:37:46;101012.59;;;1.75;80.76
17607;BME280;69222;52.242;20.980;2023-11-19T00:40:16;101004.84;;;1.72;79.55
17607;BME280;69222;52.242;20.980;2023-11-19T00:42:45;100996.13;;;1.65;79.26
17607;BME280;69222;52.242;20.980;2023-11-19T00:45:14;101007.69;;;1.58;80.10
17607;BME280;69222;52.242;20.980;2023-11-19T00:47:42;101004.06;;;1.52;80.15
17607;BME280;69222;52.242;20.980;2023-11-19T00:50:10;100999.91;;;1.54;81.00
17607;BME280;69222;52.242;20.980;2023-11-19T00:52:40;100999.97;;;1.55;80.14
17607;BME280;69222;52.242;20.980;2023-11-19T00:55:09;100994.25;;;1.61;80.71
17607;BME280;69222;52.242;20.980;2023-11-19T00:57:38;100998.53;;;1.62;81.13
17607;BME280;69222;52.242;20.980;2023-11-19T01:00:07;100988.31;;;1.60;80.50
17607;BME280;69222;52.242;20.980;2023-11-19T01:02:46;100964.63;;;1.61;80.59
17607;BME280;69222;52.242;20.980;2023-11-19T01:05:18;100969.09;;;1.67;80.76
17607;BME280;69222;52.242;20.980;2023-11-19T01:07:48;100963.16;;;1.66;79.76
17607;BME280;69222;52.242;20.980;2023-11-19T01:10:22;100957.78;;;1.59;80.73
17607;BME280;69222;52.242;20.980;2023-11-19T01:12:52;100961.25;;;1.61;81.10
17607;BME280;69222;52.242;20.980;2023-11-19T01:15:21;100954.56;;;1.63;80.66
17607;BME280;69222;52.242;20.980;2023-11-19T01:17:49;100950.38;;;1.65;80.29
17607;BME280;69222;52.242;20.980;2023-11-19T01:20:19;100941.91;;;1.64;80.72
17607;BME280;69222;52.242;20.980;2023-11-19T01:22:50;100937.69;;;1.65;80.17
17607;BME280;69222;52.242;20.980;2023-11-19T01:25:21;100931.69;;;1.63;80.75
17607;BME280;69222;52.242;20.980;2023-11-19T01:27:52;100931.69;;;1.63;80.41
17607;BME280;69222;52.242;20.980;2023-11-19T01:30:20;100933.28;;;1.61;81.08
17607;BME280;69222;52.242;20.980;2023-11-19T01:32:48;100938.38;;;1.61;81.38
17607;BME280;69222;52.242;20.980;2023-11-19T01:35:16;100937.38;;;1.57;80.76
17607;BME280;69222;52.242;20.980;2023-11-19T01:37:44;100942.59;;;1.60;81.19
17607;BME280;69222;52.242;20.980;2023-11-19T01:40:12;100950.38;;;1.65;80.66
17607;BME280;69222;52.242;20.980;2023-11-19T01:42:40;100943.72;;;1.67;80.64
17607;BME280;69222;52.242;20.980;2023-11-19T01:45:21;100934.66;;;1.74;80.80
17607;BME280;69222;52.242;20.980;2023-11-19T01:47:50;100922.84;;;1.76;80.93
17607;BME280;69222;52.242;20.980;2023-11-19T01:50:18;100920.56;;;1.82;80.87
17607;BME280;69222;52.242;20.980;2023-11-19T01:52:46;100918.94;;;1.84;80.17
17607;BME280;69222;52.242;20.980;2023-11-19T01:55:15;100907.91;;;1.83;81.02
17607;BME280;69222;52.242;20.980;2023-11-19T01:57:43;100895.19;;;1.83;80.20
17607;BME280;69222;52.242;20.980;2023-11-19T02:00:13;100903.00;;;1.88;80.86
17607;BME280;69222;52.242;20.980;2023-11-19T02:02:43;100896.19;;;1.87;80.68
17607;BME280;69222;52.242;20.980;2023-11-19T02:05:12;100901.22;;;1.85;80.68
17607;BME280;69222;52.242;20.980;2023-11-19T02:07:40;100891.88;;;1.84;79.90
17607;BME280;69222;52.242;20.980;2023-11-19T02:10:09;100888.50;;;1.85;80.81
17607;BME280;69222;52.242;20.980;2023-11-19T02:12:41;100892.78;;;1.86;80.45
17607;BME280;69222;52.242;20.980;2023-11-19T02:15:13;100879.44;;;1.92;80.72
17607;BME280;69222;52.242;20.980;2023-11-19T02:17:41;100876.03;;;1.91;80.33
17607;BME280;69222;52.242;20.980;2023-11-19T02:20:10;100876.81;;;1.90;80.34
17607;BME280;69222;52.242;20.980;2023-11-19T02:22:41;100871.75;;;1.90;79.32
17607;BME280;69222;52.242;20.980;2023-11-19T02:25:15;100878.47;;;1.88;79.89
17607;BME280;69222;52.242;20.980;2023-11-19T02:27:51;100875.06;;;1.88;79.22
17607;BME280;69222;52.242;20.980;2023-11-19T02:30:22;100877.66;;;1.89;80.12
17607;BME280;69222;52.242;20.980;2023-11-19T02:32:53;100869.16;;;1.89;79.40
17607;BME280;69222;52.242;20.980;2023-11-19T02:35:24;100871.75;;;1.90;80.44
17607;BME280;69222;52.242;20.980;2023-11-19T02:37:53;100860.72;;;1.90;79.70
17607;BME280;69222;52.242;20.980;2023-11-19T02:40:21;100859.00;;;1.89;80.38
17607;BME280;69222;52.242;20.980;2023-11-19T02:42:52;100855.47;;;1.85;79.96
17607;BME280;69222;52.242;20.980;2023-11-19T02:45:22;100862.28;;;1.86;79.89
17607;BME280;69222;52.242;20.980;2023-11-19T02:47:50;100852.94;;;1.85;79.68
17607;BME280;69222;52.242;20.980;2023-11-19T02:50:19;100842.88;;;1.88;80.51
17607;BME280;69222;52.242;20.980;2023-11-19T02:52:53;100837.00;;;1.89;79.48
17607;BME280;69222;52.242;20.980;2023-11-19T02:55:24;100825.88;;;1.87;79.72
17607;BME280;69222;52.242;20.980;2023-11-19T02:57:56;100830.31;;;1.91;80.32
17607;BME280;69222;52.242;20.980;2023-11-19T03:00:26;100821.03;;;1.93;79.57
17607;BME280;69222;52.242;20.980;2023-11-19T03:03:00;100816.81;;;1.94;79.86
17607;BME280;69222;52.242;20.980;2023-11-19T03:05:37;100814.28;;;1.94;79.84
17607;BME280;69222;52.242;20.980;2023-11-19T03:08:07;100810.88;;;1.93;79.84
17607;BME280;69222;52.242;20.980;2023-11-19T03:10:35;100809.25;;;1.96;80.60
17607;BME280;69222;52.242;20.980;2023-11-19T03:13:04;100812.72;;;1.98;80.37
17607;BME280;69222;52.242;20.980;2023-11-19T03:15:32;100803.41;;;1.98;80.76
17607;BME280;69222;52.242;20.980;2023-11-19T03:18:00;100799.09;;;1.96;79.48
17607;BME280;69222;52.242;20.980;2023-11-19T03:20:29;100794.88;;;1.96;79.45
17607;BME280;69222;52.242;20.980;2023-11-19T03:22:57;100791.41;;;1.94;80.05
17607;BME280;69222;52.242;20.980;2023-11-19T03:25:25;100779.63;;;1.96;80.34
17607;BME280;69222;52.242;20.980;2023-11-19T03:27:53;100772.88;;;1.97;79.66
17607;BME280;69222;52.242;20.980;2023-11-19T03:30:23;100769.56;;;1.99;80.25
17607;BME280;69222;52.242;20.980;2023-11-19T03:33:00;100771.19;;;1.97;79.55
17607;BME280;69222;52.242;20.980;2023-11-19T03:35:29;100770.31;;;1.97;79.13
17607;BME280;69222;52.242;20.980;2023-11-19T03:37:58;100778.59;;;1.91;78.82
17607;BME280;69222;52.242;20.980;2023-11-19T03:40:26;100768.03;;;1.80;78.60
17607;BME280;69222;52.242;20.980;2023-11-19T03:42:55;100768.84;;;1.79;79.64
17607;BME280;69222;52.242;20.980;2023-11-19T03:45:25;100768.81;;;1.78;79.91
17607;BME280;69222;52.242;20.980;2023-11-19T03:47:53;100766.44;;;1.82;80.29
17607;BME280;69222;52.242;20.980;2023-11-19T03:50:21;100764.88;;;1.86;80.02
17607;BME280;69222;52.242;20.980;2023-11-19T03:52:49;100751.41;;;1.88;79.46
17607;BME280;69222;52.242;20.980;2023-11-19T03:55:18;100759.94;;;1.90;80.06
17607;BME280;69222;52.242;20.980;2023-11-19T03:57:46;100746.44;;;1.91;80.04
17607;BME280;69222;52.242;20.980;2023-11-19T04:00:15;100732.94;;;1.94;79.51
17607;BME280;69222;52.242;20.980;2023-11-19T04:02:47;100725.34;;;1.94;79.54
17607;BME280;69222;52.242;20.980;2023-11-19T04:05:16;100732.19;;;1.97;79.76
17607;BME280;69222;52.242;20.980;2023-11-19T04:07:46;100728.91;;;1.99;78.93
17607;BME280;69222;52.242;20.980;2023-11-19T04:10:14;100727.94;;;1.96;79.15
17607;BME280;69222;52.242;20.980;2023-11-19T04:12:43;100718.75;;;1.99;78.94
17607;BME280;69222;52.242;20.980;2023-11-19T04:15:11;100705.22;;;2.00;79.12
17607;BME280;69222;52.242;20.980;2023-11-19T04:17:40;100711.28;;;2.04;79.99
17607;BME280;69222;52.242;20.980;2023-11-19T04:20:11;100709.44;;;2.00;79.31
17607;BME280;69222;52.242;20.980;2023-11-19T04:22:41;100704.25;;;1.97;78.98
17607;BME280;69222;52.242;20.980;2023-11-19T04:25:09;100697.44;;;1.96;78.95
17607;BME280;69222;52.242;20.980;2023-11-19T04:27:37;100688.78;;;1.90;79.66
17607;BME280;69222;52.242;20.980;2023-11-19T04:30:06;100695.69;;;1.94;79.67
17607;BME280;69222;52.242;20.980;2023-11-19T04:32:38;100683.00;;;1.94;79.49
17607;BME280;69222;52.242;20.980;2023-11-19T04:35:07;100680.31;;;1.90;78.87
17607;BME280;69222;52.242;20.980;2023-11-19T04:37:37;100675.06;;;1.85;79.02
17607;BME280;69222;52.242;20.980;2023-11-19T04:40:06;100670.03;;;1.87;79.24
17607;BME280;69222;52.242;20.980;2023-11-19T04:42:35;100675.19;;;1.88;80.38
17607;BME280;69222;52.242;20.980;2023-11-19T04:45:03;100668.41;;;1.89;80.08
17607;BME280;69222;52.242;20.980;2023-11-19T04:47:33;100659.97;;;1.90;79.51
17607;BME280;69222;52.242;20.980;2023-11-19T04:50:02;100665.03;;;1.88;79.55
17607;BME280;69222;52.242;20.980;2023-11-19T04:52:30;100664.19;;;1.89;79.76
17607;BME280;69222;52.242;20.980;2023-11-19T04:55:00;100663.47;;;1.93;80.24
17607;BME280;69222;52.242;20.980;2023-11-19T04:57:28;100656.72;;;1.94;80.67
17607;BME280;69222;52.242;20.980;2023-11-19T04:59:58;100653.44;;;1.97;80.24
17607;BME280;69222;52.242;20.980;2023-11-19T05:02:27;100655.25;;;2.01;80.23
17607;BME280;69222;52.242;20.980;2023-11-19T05:04:55;100653.63;;;2.03;79.75
17607;BME280;69222;52.242;20.980;2023-11-19T05:07:23;100647.75;;;2.05;78.88
17607;BME280;69222;52.242;20.980;2023-11-19T05:09:51;100635.91;;;2.06;78.44
17607;BME280;69222;52.242;20.980;2023-11-19T05:12:21;100635.13;;;2.07;78.39
17607;BME280;69222;52.242;20.980;2023-11-19T05:14:49;100628.13;;;2.00;77.73
17607;BME280;69222;52.242;20.980;2023-11-19T05:17:17;100627.94;;;1.95;78.63
17607;BME280;69222;52.242;20.980;2023-11-19T05:19:46;100624.47;;;1.91;79.16
17607;BME280;69222;52.242;20.980;2023-11-19T05:22:15;100623.69;;;1.94;79.07
17607;BME280;69222;52.242;20.980;2023-11-19T05:24:43;100618.66;;;1.96;79.35
17607;BME280;69222;52.242;20.980;2023-11-19T05:27:11;100625.41;;;1.95;78.62
17607;BME280;69222;52.242;20.980;2023-11-19T05:29:41;100617.75;;;1.93;78.78
17607;BME280;69222;52.242;20.980;2023-11-19T05:32:10;100615.00;;;1.87;78.54
17607;BME280;69222;52.242;20.980;2023-11-19T05:34:39;100619.28;;;1.88;79.84
17607;BME280;69222;52.242;20.980;2023-11-19T05:37:10;100605.75;;;1.89;79.20
17607;BME280;69222;52.242;20.980;2023-11-19T05:39:38;100612.53;;;1.89;78.34
17607;BME280;69222;52.242;20.980;2023-11-19T05:42:06;100607.47;;;1.90;79.22
17607;BME280;69222;52.242;20.980;2023-11-19T05:44:34;100606.72;;;1.93;79.22
17607;BME280;69222;52.242;20.980;2023-11-19T05:47:10;100604.31;;;1.98;78.89
17607;BME280;69222;52.242;20.980;2023-11-19T05:49:42;100606.94;;;1.99;79.47
17607;BME280;69222;52.242;20.980;2023-11-19T05:52:10;100607.72;;;1.98;78.73
17607;BME280;69222;52.242;20.980;2023-11-19T05:54:40;100596.66;;;1.96;78.51
17607;BME280;69222;52.242;20.980;2023-11-19T05:57:11;100589.13;;;1.99;79.54
17607;BME280;69222;52.242;20.980;2023-11-19T05:59:41;100599.34;;;2.01;79.41
17607;BME280;69222;52.242;20.980;2023-11-19T06:02:10;100601.06;;;2.02;78.54
17607;BME280;69222;52.242;20.980;2023-11-19T06:04:38;100595.13;;;2.01;79.06
17607;BME280;69222;52.242;20.980;2023-11-19T06:07:08;100597.56;;;1.98;79.23
17607;BME280;69222;52.242;20.980;2023-11-19T06:09:36;100605.28;;;2.01;78.48
17607;BME280;69222;52.242;20.980;2023-11-19T06:12:04;100603.59;;;2.02;79.11
17607;BME280;69222;52.242;20.980;2023-11-19T06:14:34;100606.13;;;2.02;79.26
17607;BME280;69222;52.242;20.980;2023-11-19T06:17:02;100603.50;;;1.99;79.28
17607;BME280;69222;52.242;20.980;2023-11-19T06:19:34;100595.84;;;1.97;78.75
17607;BME280;69222;52.242;20.980;2023-11-19T06:22:02;100598.38;;;1.97;78.30
17607;BME280;69222;52.242;20.980;2023-11-19T06:24:30;100585.44;;;1.89;77.68
17607;BME280;69222;52.242;20.980;2023-11-19T06:26:58;100579.38;;;1.86;77.59
17607;BME280;69222;52.242;20.980;2023-11-19T06:29:29;100577.47;;;1.79;78.12
17607;BME280;69222;52.242;20.980;2023-11-19T06:31:57;100577.25;;;1.73;77.87
17607;BME280;69222;52.242;20.980;2023-11-19T06:34:41;100572.94;;;1.70;77.69
17607;BME280;69222;52.242;20.980;2023-11-19T06:37:09;100570.25;;;1.65;77.73
17607;BME280;69222;52.242;20.980;2023-11-19T06:39:37;100571.19;;;1.69;78.02
17607;BME280;69222;52.242;20.980;2023-11-19T06:42:06;100562.78;;;1.70;77.19
17607;BME280;69222;52.242;20.980;2023-11-19T06:44:34;100554.34;;;1.71;77.97
17607;BME280;69222;52.242;20.980;2023-11-19T06:47:02;100554.44;;;1.74;77.40
17607;BME280;69222;52.242;20.980;2023-11-19T06:49:30;100542.50;;;1.72;77.52
17607;BME280;69222;52.242;20.980;2023-11-19T06:52:00;100539.13;;;1.73;78.08
17607;BME280;69222;52.242;20.980;2023-11-19T06:54:30;100536.66;;;1.74;77.70
17607;BME280;69222;52.242;20.980;2023-11-19T06:56:58;100543.38;;;1.72;77.11
17607;BME280;69222;52.242;20.980;2023-11-19T06:59:26;100536.53;;;1.69;76.92
17607;BME280;69222;52.242;20.980;2023-11-19T07:01:55;100527.97;;;1.67;76.85
17607;BME280;69222;52.242;20.980;2023-11-19T07:04:23;100533.16;;;1.71;77.06
17607;BME280;69222;52.242;20.980;2023-11-19T07:06:51;100528.97;;;1.73;77.10
17607;BME280;69222;52.242;20.980;2023-11-19T07:09:22;100524.88;;;1.76;77.48
17607;BME280;69222;52.242;20.980;2023-11-19T07:11:50;100524.94;;;1.78;76.63
17607;BME280;69222;52.242;20.980;2023-11-19T07:14:18;100515.56;;;1.77;76.57
17607;BME280;69222;52.242;20.980;2023-11-19T07:16:46;100515.53;;;1.75;76.28
17607;BME280;69222;52.242;20.980;2023-11-19T07:19:14;100500.81;;;1.65;76.63
17607;BME280;69222;52.242;20.980;2023-11-19T07:21:43;100518.69;;;1.68;76.67
17607;BME280;69222;52.242;20.980;2023-11-19T07:24:12;100522.94;;;1.69;77.15
17607;BME280;69222;52.242;20.980;2023-11-19T07:26:43;100514.53;;;1.70;77.49
17607;BME280;69222;52.242;20.980;2023-11-19T07:29:11;100511.16;;;1.71;77.40
17607;BME280;69222;52.242;20.980;2023-11-19T07:31:53;100512.72;;;1.66;77.07
17607;BME280;69222;52.242;20.980;2023-11-19T07:34:23;100509.22;;;1.62;77.23
17607;BME280;69222;52.242;20.980;2023-11-19T07:36:53;100506.75;;;1.65;77.50
17607;BME280;69222;52.242;20.980;2023-11-19T07:39:24;100504.25;;;1.67;76.76
17607;BME280;69222;52.242;20.980;2023-11-19T07:41:53;100501.72;;;1.67;76.91
17607;BME280;69222;52.242;20.980;2023-11-19T07:44:24;100499.28;;;1.70;77.30
17607;BME280;69222;52.242;20.980;2023-11-19T07:46:52;100494.38;;;1.76;77.03
17607;BME280;69222;52.242;20.980;2023-11-19T07:49:21;100491.94;;;1.79;76.32
17607;BME280;69222;52.242;20.980;2023-11-19T07:51:49;100488.63;;;1.82;76.42
17607;BME280;69222;52.242;20.980;2023-11-19T07:54:17;100479.34;;;1.82;75.95
17607;BME280;69222;52.242;20.980;2023-11-19T07:56:45;100477.66;;;1.83;75.78
17607;BME280;69222;52.242;20.980;2023-11-19T07:59:14;100463.09;;;1.77;75.31
17607;BME280;69222;52.242;20.980;2023-11-19T08:01:42;100463.22;;;1.82;76.02
17607;BME280;69222;52.242;20.980;2023-11-19T08:04:10;100458.41;;;1.91;76.15
17607;BME280;69222;52.242;20.980;2023-11-19T08:06:38;100464.38;;;1.91;75.72
17607;BME280;69222;52.242;20.980;2023-11-19T08:09:06;100460.22;;;1.95;74.68
17607;BME280;69222;52.242;20.980;2023-11-19T08:11:40;100453.63;;;2.00;74.96
17607;BME280;69222;52.242;20.980;2023-11-19T08:14:09;100457.97;;;2.04;75.25
17607;BME280;69222;52.242;20.980;2023-11-19T08:16:40;100447.78;;;2.03;74.41
17607;BME280;69222;52.242;20.980;2023-11-19T08:19:08;100453.00;;;2.09;74.84
17607;BME280;69222;52.242;20.980;2023-11-19T08:21:36;100453.09;;;2.12;74.91
17607;BME280;69222;52.242;20.980;2023-11-19T08:24:04;100437.09;;;2.14;75.17
17607;BME280;69222;52.242;20.980;2023-11-19T08:26:32;100436.44;;;2.22;75.25
17607;BME280;69222;52.242;20.980;2023-11-19T08:29:01;100423.88;;;2.26;74.28
17607;BME280;69222;52.242;20.980;2023-11-19T08:31:32;100415.28;;;2.23;74.27
17607;BME280;69222;52.242;20.980;2023-11-19T08:34:01;100423.00;;;2.26;74.01
17607;BME280;69222;52.242;20.980;2023-11-19T08:36:31;100423.84;;;2.25;74.81
17607;BME280;69222;52.242;20.980;2023-11-19T08:38:59;100415.69;;;2.36;74.57
17607;BME280;69222;52.242;20.980;2023-11-19T08:41:29;100409.13;;;2.45;74.87
17607;BME280;69222;52.242;20.980;2023-11-19T08:43:58;100418.75;;;2.56;74.42
17607;BME280;69222;52.242;20.980;2023-11-19T08:46:26;100417.22;;;2.61;74.07
17607;BME280;69222;52.242;20.980;2023-11-19T08:48:54;100412.81;;;2.57;72.66
17607;BME280;69222;52.242;20.980;2023-11-19T08:51:26;100421.28;;;2.56;73.43
17607;BME280;69222;52.242;20.980;2023-11-19T08:53:55;100406.78;;;2.52;73.62
17607;BME280;69222;52.242;20.980;2023-11-19T08:56:24;100412.63;;;2.50;72.84
17607;BME280;69222;52.242;20.980;2023-11-19T08:58:52;100401.47;;;2.43;73.90
17607;BME280;69222;52.242;20.980;2023-11-19T09:01:21;100406.47;;;2.40;73.90
17607;BME280;69222;52.242;20.980;2023-11-19T09:03:51;100403.25;;;2.47;73.59
17607;BME280;69222;52.242;20.980;2023-11-19T09:06:20;100381.34;;;2.52;73.53
17607;BME280;69222;52.242;20.980;2023-11-19T09:08:49;100373.03;;;2.59;73.14
17607;BME280;69222;52.242;20.980;2023-11-19T09:11:18;100377.50;;;2.68;72.75
17607;BME280;69222;52.242;20.980;2023-11-19T09:13:46;100376.66;;;2.67;72.55
17607;BME280;69222;52.242;20.980;2023-11-19T09:16:14;100362.22;;;2.68;72.76
17607;BME280;69222;52.242;20.980;2023-11-19T09:18:42;100357.22;;;2.71;72.15
17607;BME280;69222;52.242;20.980;2023-11-19T09:21:10;100352.19;;;2.73;73.61
17607;BME280;69222;52.242;20.980;2023-11-19T09:23:38;100340.41;;;2.76;73.57
17607;BME280;69222;52.242;20.980;2023-11-19T09:26:09;100354.78;;;2.76;72.66
17607;BME280;69222;52.242;20.980;2023-11-19T09:28:39;100345.34;;;2.70;73.07
17607;BME280;69222;52.242;20.980;2023-11-19T09:31:15;100346.03;;;2.64;73.05
17607;BME280;69222;52.242;20.980;2023-11-19T09:33:44;100340.00;;;2.61;73.56
17607;BME280;69222;52.242;20.980;2023-11-19T09:36:14;100336.34;;;2.50;73.36
17607;BME280;69222;52.242;20.980;2023-11-19T09:38:45;100324.28;;;2.42;73.68
17607;BME280;69222;52.242;20.980;2023-11-19T09:41:14;100329.31;;;2.39;72.98
17607;BME280;69222;52.242;20.980;2023-11-19T09:43:44;100329.22;;;2.36;74.92
17607;BME280;69222;52.242;20.980;2023-11-19T09:46:14;100329.06;;;2.30;74.42
17607;BME280;69222;52.242;20.980;2023-11-19T09:48:44;100333.22;;;2.28;74.31
17607;BME280;69222;52.242;20.980;2023-11-19T09:51:12;100318.13;;;2.33;75.28
17607;BME280;69222;52.242;20.980;2023-11-19T09:53:40;100315.56;;;2.33;75.13
17607;BME280;69222;52.242;20.980;2023-11-19T09:56:12;100311.25;;;2.30;75.12
17607;BME280;69222;52.242;20.980;2023-11-19T09:58:42;100312.19;;;2.34;75.36
17607;BME280;69222;52.242;20.980;2023-11-19T10:01:11;100302.72;;;2.28;75.84
17607;BME280;69222;52.242;20.980;2023-11-19T10:03:42;100302.72;;;2.28;75.60
17607;BME280;69222;52.242;20.980;2023-11-19T10:06:15;100306.00;;;2.24;75.93
17607;BME280;69222;52.242;20.980;2023-11-19T10:08:45;100294.88;;;2.21;76.63
17607;BME280;69222;52.242;20.980;2023-11-19T10:11:17;100289.75;;;2.17;76.07
17607;BME280;69222;52.242;20.980;2023-11-19T10:13:46;100287.41;;;2.25;76.47
17607;BME280;69222;52.242;20.980;2023-11-19T10:16:18;100279.84;;;2.28;76.27
17607;BME280;69222;52.242;20.980;2023-11-19T10:18:48;100274.06;;;2.34;75.84
17607;BME280;69222;52.242;20.980;2023-11-19T10:21:17;100268.19;;;2.36;77.29
17607;BME280;69222;52.242;20.980;2023-11-19T10:23:49;100260.56;;;2.36;76.28
17607;BME280;69222;52.242;20.980;2023-11-19T10:26:19;100262.31;;;2.39;76.82
17607;BME280;69222;52.242;20.980;2023-11-19T10:28:52;100265.84;;;2.44;75.53
17607;BME280;69222;52.242;20.980;2023-11-19T10:31:20;100255.69;;;2.46;75.47
17607;BME280;69222;52.242;20.980;2023-11-19T10:33:52;100248.81;;;2.41;75.94
17607;BME280;69222;52.242;20.980;2023-11-19T10:36:21;100250.50;;;2.41;75.46
17607;BME280;69222;52.242;20.980;2023-11-19T10:38:54;100245.41;;;2.41;76.60
17607;BME280;69222;52.242;20.980;2023-11-19T10:41:27;100231.88;;;2.42;76.50
17607;BME280;69222;52.242;20.980;2023-11-19T10:43:56;100228.56;;;2.45;76.97
17607;BME280;69222;52.242;20.980;2023-11-19T10:46:36;100231.19;;;2.48;75.47
17607;BME280;69222;52.242;20.980;2023-11-19T10:49:04;100224.22;;;2.40;75.86
17607;BME280;69222;52.242;20.980;2023-11-19T10:51:33;100217.47;;;2.42;75.68
17607;BME280;69222;52.242;20.980;2023-11-19T10:54:03;100205.44;;;2.35;76.14
17607;BME280;69222;52.242;20.980;2023-11-19T10:56:33;100203.66;;;2.31;75.19
17607;BME280;69222;52.242;20.980;2023-11-19T10:59:04;100200.13;;;2.26;75.89
17607;BME280;69222;52.242;20.980;2023-11-19T11:01:44;100191.69;;;2.27;75.63
17607;BME280;69222;52.242;20.980;2023-11-19T11:04:14;100175.56;;;2.25;77.09
17607;BME280;69222;52.242;20.980;2023-11-19T11:06:43;100181.50;;;2.27;76.23
17607;BME280;69222;52.242;20.980;2023-11-19T11:09:13;100180.75;;;2.30;76.69
17607;BME280;69222;52.242;20.980;2023-11-19T11:11:46;100164.56;;;2.28;76.40
17607;BME280;69222;52.242;20.980;2023-11-19T11:14:18;100159.63;;;2.32;76.88
17607;BME280;69222;52.242;20.980;2023-11-19T11:16:48;100151.09;;;2.30;76.49
17607;BME280;69222;52.242;20.980;2023-11-19T11:19:18;100147.59;;;2.25;76.02
17607;BME280;69222;52.242;20.980;2023-11-19T11:21:50;100134.78;;;2.22;76.47
17607;BME280;69222;52.242;20.980;2023-11-19T11:24:30;100145.03;;;2.25;77.07
17607;BME280;69222;52.242;20.980;2023-11-19T11:27:28;100137.28;;;2.21;77.19
17607;BME280;69222;52.242;20.980;2023-11-19T11:30:09;100131.41;;;2.22;77.23
17607;BME280;69222;52.242;20.980;2023-11-19T11:32:43;100122.03;;;2.21;76.51
17607;BME280;69222;52.242;20.980;2023-11-19T11:35:25;100123.78;;;2.22;77.88
17607;BME280;69222;52.242;20.980;2023-11-19T11:38:01;100111.94;;;2.24;78.35
17607;BME280;69222;52.242;20.980;2023-11-19T11:40:30;100112.78;;;2.23;77.41
17607;BME280;69222;52.242;20.980;2023-11-19T11:42:59;100113.78;;;2.29;78.08
17607;BME280;69222;52.242;20.980;2023-11-19T11:45:36;100110.47;;;2.33;77.60
17607;BME280;69222;52.242;20.980;2023-11-19T11:48:09;100101.16;;;2.32;77.21
17607;BME280;69222;52.242;20.980;2023-11-19T11:50:51;100096.88;;;2.31;76.81
17607;BME280;69222;52.242;20.980;2023-11-19T11:53:21;100090.06;;;2.30;78.06
17607;BME280;69222;52.242;20.980;2023-11-19T11:55:58;100089.22;;;2.31;77.29
17607;BME280;69222;52.242;20.980;2023-11-19T11:58:31;100079.88;;;2.29;76.47
17607;BME280;69222;52.242;20.980;2023-11-19T12:01:03;100082.44;;;2.30;77.57
17607;BME280;69222;52.242;20.980;2023-11-19T12:03:33;100074.88;;;2.33;77.82
17607;BME280;69222;52.242;20.980;2023-11-19T12:06:02;100067.34;;;2.38;78.38
17607;BME280;69222;52.242;20.980;2023-11-19T12:08:31;100055.41;;;2.35;77.15
17607;BME280;69222;52.242;20.980;2023-11-19T12:11:19;100047.00;;;2.36;77.82
17607;BME280;69222;52.242;20.980;2023-11-19T12:13:55;100057.19;;;2.38;77.94
17607;BME280;69222;52.242;20.980;2023-11-19T12:16:27;100048.72;;;2.39;78.11
17607;BME280;69222;52.242;20.980;2023-11-19T12:18:56;100036.84;;;2.38;78.22
17607;BME280;69222;52.242;20.980;2023-11-19T12:21:28;100027.41;;;2.32;77.98
17607;BME280;69222;52.242;20.980;2023-11-19T12:24:00;100027.44;;;2.35;77.37
17607;BME280;69222;52.242;20.980;2023-11-19T12:26:38;100023.19;;;2.33;78.04
17607;BME280;69222;52.242;20.980;2023-11-19T12:29:07;100017.19;;;2.29;77.54
17607;BME280;69222;52.242;20.980;2023-11-19T12:31:37;100004.41;;;2.28;78.47
17607;BME280;69222;52.242;20.980;2023-11-19T12:34:09;100009.56;;;2.29;78.41
17607;BME280;69222;52.242;20.980;2023-11-19T12:36:40;100005.19;;;2.24;78.56
17607;BME280;69222;52.242;20.980;2023-11-19T12:39:16;100010.34;;;2.27;77.67
17607;BME280;69222;52.242;20.980;2023-11-19T12:41:54;100006.88;;;2.23;78.27
17607;BME280;69222;52.242;20.980;2023-11-19T12:44:22;99999.22;;;2.22;78.84
17607;BME280;69222;52.242;20.980;2023-11-19T12:47:03;99991.63;;;2.23;77.75
17607;BME280;69222;52.242;20.980;2023-11-19T12:49:31;99998.38;;;2.21;77.93
17607;BME280;69222;52.242;20.980;2023-11-19T12:52:01;99996.53;;;2.14;77.11
17607;BME280;69222;52.242;20.980;2023-11-19T12:54:34;100000.63;;;2.09;77.84
17607;BME280;69222;52.242;20.980;2023-11-19T12:57:04;100006.59;;;2.11;77.49
17607;BME280;69222;52.242;20.980;2023-11-19T12:59:33;100005.75;;;2.10;77.65
17607;BME280;69222;52.242;20.980;2023-11-19T13:02:03;100004.94;;;2.13;78.38
17607;BME280;69222;52.242;20.980;2023-11-19T13:04:33;99993.06;;;2.12;78.36